createdAt,value
2018-09-27T00:00:13.944Z,7.29
2018-09-27T00:01:13.865Z,7.37
2018-09-27T00:02:13.787Z,7.38
2018-09-27T00:03:13.708Z,7.37
2018-09-27T00:04:13.629Z,7.37
2018-09-27T00:05:13.550Z,7.41
2018-09-27T00:06:13.472Z,7.44
2018-09-27T00:07:13.392Z,7.44
2018-09-27T00:08:13.313Z,7.44
2018-09-27T00:09:13.234Z,7.44
2018-09-27T00:10:13.157Z,7.38
2018-09-27T00:11:13.079Z,7.48
2018-09-27T00:12:12.999Z,7.45
2018-09-27T00:13:12.918Z,7.47
2018-09-27T00:14:12.841Z,7.35
2018-09-27T00:15:12.762Z,7.41
2018-09-27T00:16:12.682Z,7.52
2018-09-27T00:17:12.604Z,7.56
2018-09-27T00:18:12.526Z,7.53
2018-09-27T00:19:12.446Z,7.44
2018-09-27T00:20:12.366Z,7.38
2018-09-27T00:21:12.293Z,7.42
2018-09-27T00:22:12.311Z,7.23
2018-09-27T00:23:12.132Z,7.31
2018-09-27T00:24:12.052Z,7.19
2018-09-27T00:25:11.976Z,7.16
2018-09-27T00:26:11.895Z,7.24
2018-09-27T00:27:11.865Z,7.13
2018-09-27T00:28:11.737Z,7.23
2018-09-27T00:29:11.656Z,7.13
2018-09-27T00:30:11.579Z,7.11
2018-09-27T00:31:11.504Z,7.12
2018-09-27T00:32:11.420Z,7.13
2018-09-27T00:33:11.493Z,7.13
2018-09-27T00:34:11.264Z,7.17
2018-09-27T00:35:11.184Z,7.19
2018-09-27T00:36:11.104Z,7.19
2018-09-27T00:37:11.026Z,7.17
2018-09-27T00:38:11.247Z,7.17
2018-09-27T00:39:10.870Z,7.12
2018-09-27T00:40:10.788Z,7.17
2018-09-27T00:41:10.711Z,7.13
2018-09-27T00:42:10.631Z,7.06
2018-09-27T00:43:10.853Z,7.20
2018-09-27T00:44:10.475Z,7.19
2018-09-27T00:45:10.403Z,7.20
2018-09-27T00:46:10.316Z,7.16
2018-09-27T00:47:10.236Z,7.19
2018-09-27T00:48:10.157Z,7.11
2018-09-27T00:49:10.079Z,7.12
2018-09-27T00:50:09.999Z,7.17
2018-09-27T00:51:09.920Z,7.19
2018-09-27T00:52:09.842Z,7.19
2018-09-27T00:53:09.762Z,7.20
2018-09-27T00:54:09.784Z,7.13
2018-09-27T00:55:09.605Z,7.16
2018-09-27T00:56:09.524Z,7.21
2018-09-27T00:57:09.450Z,7.31
2018-09-27T00:58:09.367Z,7.13
2018-09-27T00:59:09.340Z,7.17
2018-09-27T01:00:09.208Z,7.13
2018-09-27T01:01:09.129Z,7.16
2018-09-27T01:02:09.052Z,7.17
2018-09-27T01:03:08.972Z,7.06
2018-09-27T01:04:08.895Z,7.12
2018-09-27T01:05:08.813Z,7.05
2018-09-27T01:06:08.736Z,7.01
2018-09-27T01:07:08.656Z,6.99
2018-09-27T01:08:08.577Z,7.06
2018-09-27T01:09:08.497Z,7.03
2018-09-27T01:10:08.417Z,6.99
2018-09-27T01:11:08.339Z,6.93
2018-09-27T01:12:08.259Z,6.94
2018-09-27T01:13:08.182Z,6.90
2018-09-27T01:14:08.102Z,7.02
2018-09-27T01:15:08.023Z,7.06
2018-09-27T01:16:07.944Z,6.96
2018-09-27T01:17:07.915Z,7.03
2018-09-27T01:18:07.786Z,7.03
2018-09-27T01:19:07.707Z,7.11
2018-09-27T01:20:07.627Z,7.08
2018-09-27T01:21:07.549Z,7.09
2018-09-27T01:22:07.470Z,7.08
2018-09-27T01:23:07.440Z,7.13
2018-09-27T01:24:07.310Z,7.16
2018-09-27T01:25:07.231Z,7.27
2018-09-27T01:26:07.152Z,7.19
2018-09-27T01:27:07.075Z,7.12
2018-09-27T01:28:06.994Z,7.16
2018-09-27T01:29:06.914Z,7.19
2018-09-27T01:30:06.837Z,7.12
2018-09-27T01:31:06.758Z,7.16
2018-09-27T01:32:06.678Z,7.12
2018-09-27T01:33:06.599Z,7.16
2018-09-27T01:34:06.520Z,7.12
2018-09-27T01:35:06.491Z,7.27
2018-09-27T01:36:06.362Z,7.16
2018-09-27T01:37:06.282Z,7.09
2018-09-27T01:38:06.206Z,7.09
2018-09-27T01:39:06.126Z,7.08
2018-09-27T01:40:06.046Z,6.94
2018-09-27T01:41:05.967Z,7.01
2018-09-27T01:42:05.887Z,7.01
2018-09-27T01:43:05.809Z,7.12
2018-09-27T01:44:05.732Z,7.11
2018-09-27T01:45:05.650Z,7.17
2018-09-27T01:46:05.571Z,7.08
2018-09-27T01:47:05.558Z,7.13
2018-09-27T01:48:05.413Z,7.16
2018-09-27T01:49:05.334Z,7.09
2018-09-27T01:50:05.254Z,7.13
2018-09-27T01:51:05.176Z,7.03
2018-09-27T01:52:05.098Z,6.99
2018-09-27T01:53:05.068Z,7.05
2018-09-27T01:54:11.206Z,7.05
2018-09-27T01:55:04.860Z,7.09
2018-09-27T01:56:04.782Z,7.13
2018-09-27T01:57:04.703Z,7.12
2018-09-27T01:58:04.673Z,7.05
2018-09-27T01:59:04.545Z,7.02
2018-09-27T02:00:04.465Z,7.06
2018-09-27T02:01:04.386Z,7.05
2018-09-27T02:02:04.308Z,7.09
2018-09-27T02:03:04.279Z,7.09
2018-09-27T02:04:04.149Z,7.19
2018-09-27T02:05:04.070Z,7.19
2018-09-27T02:06:04.035Z,7.17
2018-09-27T02:07:03.912Z,7.21
2018-09-27T02:08:03.834Z,7.29
2018-09-27T02:09:03.754Z,7.19
2018-09-27T02:10:03.676Z,7.13
2018-09-27T02:11:03.596Z,7.17
2018-09-27T02:12:03.516Z,7.27
2018-09-27T02:13:03.437Z,7.31
2018-09-27T02:14:03.359Z,7.30
2018-09-27T02:15:03.282Z,7.35
2018-09-27T02:16:03.202Z,7.39
2018-09-27T02:17:03.122Z,7.29
2018-09-27T02:18:03.043Z,7.31
2018-09-27T02:19:02.965Z,7.27
2018-09-27T02:20:02.936Z,7.17
2018-09-27T02:21:02.807Z,7.19
2018-09-27T02:22:02.728Z,7.16
2018-09-27T02:23:02.650Z,7.17
2018-09-27T02:24:02.571Z,7.13
2018-09-27T02:25:02.741Z,7.03
2018-09-27T02:26:02.413Z,7.05
2018-09-27T02:27:02.338Z,7.03
2018-09-27T02:28:02.257Z,6.98
2018-09-27T02:29:02.178Z,7.01
2018-09-27T02:30:02.099Z,6.90
2018-09-27T02:31:02.022Z,6.96
2018-09-27T02:32:01.951Z,6.88
2018-09-27T02:33:01.860Z,6.88
2018-09-27T02:34:01.811Z,6.86
2018-09-27T02:35:01.754Z,6.91
2018-09-27T02:36:01.623Z,6.88
2018-09-27T02:37:01.548Z,6.93
2018-09-27T02:38:01.465Z,6.90
2018-09-27T02:39:01.387Z,6.87
2018-09-27T02:40:01.307Z,6.93
2018-09-27T02:41:01.228Z,6.94
2018-09-27T02:42:01.149Z,7.03
2018-09-27T02:43:01.073Z,6.99
2018-09-27T02:44:00.990Z,7.01
2018-09-27T02:45:00.912Z,6.88
2018-09-27T02:46:00.832Z,6.87
2018-09-27T02:47:00.753Z,6.94
2018-09-27T02:48:00.675Z,6.87
2018-09-27T02:49:00.598Z,6.86
2018-09-27T02:50:00.515Z,6.91
2018-09-27T02:51:00.438Z,6.90
2018-09-27T02:52:00.356Z,6.91
2018-09-27T02:53:00.278Z,6.98
2018-09-27T02:54:00.199Z,6.93
2018-09-27T02:55:00.121Z,6.87
2018-09-27T02:56:00.290Z,6.93
2018-09-27T02:56:59.962Z,6.88
2018-09-27T02:57:59.887Z,6.87
2018-09-27T02:58:59.814Z,6.91
2018-09-27T02:59:59.726Z,6.83
2018-09-27T03:00:59.644Z,6.88
2018-09-27T03:01:59.564Z,6.96
2018-09-27T03:02:59.485Z,6.99
2018-09-27T03:03:59.409Z,6.96
2018-09-27T03:04:59.327Z,7.06
2018-09-27T03:05:59.249Z,7.05
2018-09-27T03:06:59.171Z,7.01
2018-09-27T03:07:59.101Z,7.03
2018-09-27T03:08:59.014Z,7.11
2018-09-27T03:09:58.931Z,6.99
2018-09-27T03:10:58.855Z,7.08
2018-09-27T03:11:58.774Z,7.05
2018-09-27T03:12:58.695Z,6.99
2018-09-27T03:13:58.737Z,7.09
2018-09-27T03:14:58.537Z,7.09
2018-09-27T03:15:58.457Z,7.02
2018-09-27T03:16:58.378Z,6.98
2018-09-27T03:17:58.301Z,6.88
2018-09-27T03:18:58.221Z,6.94
2018-09-27T03:19:58.147Z,6.88
2018-09-27T03:20:58.155Z,6.90
2018-09-27T03:21:57.982Z,6.96
2018-09-27T03:22:57.917Z,6.90
2018-09-27T03:23:57.823Z,6.87
2018-09-27T03:24:57.744Z,6.83
2018-09-27T03:25:57.666Z,6.86
2018-09-27T03:26:57.591Z,6.80
2018-09-27T03:27:57.509Z,6.76
2018-09-27T03:28:57.678Z,6.72
2018-09-27T03:29:57.350Z,6.68
2018-09-27T03:30:57.271Z,6.72
2018-09-27T03:31:57.191Z,6.69
2018-09-27T03:32:57.111Z,6.72
2018-09-27T03:33:57.034Z,6.72
2018-09-27T03:34:56.953Z,6.63
2018-09-27T03:35:56.873Z,6.66
2018-09-27T03:36:56.795Z,6.50
2018-09-27T03:37:56.716Z,6.51
2018-09-27T03:38:56.638Z,6.59
2018-09-27T03:39:56.599Z,6.65
2018-09-27T03:40:56.478Z,6.59
2018-09-27T03:41:56.398Z,6.63
2018-09-27T03:42:56.318Z,6.65
2018-09-27T03:43:56.244Z,6.63
2018-09-27T03:44:56.161Z,6.60
2018-09-27T03:45:56.081Z,6.54
2018-09-27T03:46:56.004Z,6.51
2018-09-27T03:47:55.922Z,6.59
2018-09-27T03:48:55.844Z,6.54
2018-09-27T03:49:55.763Z,6.54
2018-09-27T03:50:55.684Z,6.62
2018-09-27T03:51:55.606Z,6.54
2018-09-27T03:52:55.534Z,6.65
2018-09-27T03:53:55.445Z,6.63
2018-09-27T03:54:55.367Z,6.62
2018-09-27T03:55:55.286Z,6.68
2018-09-27T03:56:55.207Z,6.68
2018-09-27T03:57:55.129Z,6.72
2018-09-27T03:58:55.049Z,6.75
2018-09-27T03:59:54.969Z,6.68
2018-09-27T04:00:54.989Z,6.65
2018-09-27T04:01:54.811Z,6.65
2018-09-27T04:02:54.731Z,6.70
2018-09-27T04:03:54.653Z,6.66
2018-09-27T04:04:54.571Z,6.73
2018-09-27T04:05:54.594Z,6.73
2018-09-27T04:06:54.412Z,6.75
2018-09-27T04:07:54.334Z,6.72
2018-09-27T04:08:54.253Z,6.87
2018-09-27T04:09:54.174Z,6.94
2018-09-27T04:10:54.094Z,6.88
2018-09-27T04:11:54.017Z,6.87
2018-09-27T04:12:53.938Z,6.86
2018-09-27T04:13:53.857Z,6.80
2018-09-27T04:14:53.777Z,6.75
2018-09-27T04:15:53.771Z,6.69
2018-09-27T04:16:53.619Z,6.80
2018-09-27T04:17:53.540Z,6.73
2018-09-27T04:18:53.460Z,6.80
2018-09-27T04:19:53.383Z,6.83
2018-09-27T04:20:53.303Z,6.78
2018-09-27T04:21:53.577Z,6.87
2018-09-27T04:22:53.145Z,6.84
2018-09-27T04:23:53.083Z,6.87
2018-09-27T04:24:52.985Z,6.84
2018-09-27T04:25:52.904Z,6.87
2018-09-27T04:26:52.826Z,6.83
2018-09-27T04:27:52.753Z,6.84
2018-09-27T04:28:52.668Z,6.86
2018-09-27T04:29:52.588Z,6.80
2018-09-27T04:30:52.509Z,6.70
2018-09-27T04:31:52.429Z,6.68
2018-09-27T04:32:52.354Z,6.72
2018-09-27T04:33:52.344Z,6.70
2018-09-27T04:34:52.192Z,6.69
2018-09-27T04:35:52.111Z,6.70
2018-09-27T04:36:52.076Z,6.68
2018-09-27T04:37:51.954Z,6.57
2018-09-27T04:38:51.875Z,6.62
2018-09-27T04:39:51.844Z,6.50
2018-09-27T04:40:51.726Z,6.54
2018-09-27T04:41:51.639Z,6.52
2018-09-27T04:42:51.558Z,6.55
2018-09-27T04:43:51.480Z,6.60
2018-09-27T04:44:51.403Z,6.55
2018-09-27T04:45:51.408Z,6.52
2018-09-27T04:46:51.290Z,6.66
2018-09-27T04:47:51.158Z,6.52
2018-09-27T04:48:51.080Z,6.51
2018-09-27T04:49:51.001Z,6.48
2018-09-27T04:50:50.922Z,6.54
2018-09-27T04:51:50.925Z,6.66
2018-09-27T04:52:50.811Z,6.52
2018-09-27T04:53:50.682Z,6.50
2018-09-27T04:54:50.606Z,6.59
2018-09-27T04:55:50.527Z,6.59
2018-09-27T04:56:50.443Z,6.60
2018-09-27T04:57:50.368Z,6.51
2018-09-27T04:58:50.286Z,6.60
2018-09-27T04:59:50.209Z,6.57
2018-09-27T05:00:50.127Z,6.54
2018-09-27T05:01:50.048Z,6.51
2018-09-27T05:02:49.968Z,6.51
2018-09-27T05:03:49.957Z,6.60
2018-09-27T05:04:49.811Z,6.63
2018-09-27T05:05:49.732Z,6.55
2018-09-27T05:06:49.651Z,6.68
2018-09-27T05:07:49.572Z,6.75
2018-09-27T05:08:49.491Z,6.69
2018-09-27T05:09:49.413Z,6.73
2018-09-27T05:10:49.333Z,6.72
2018-09-27T05:11:49.255Z,6.73
2018-09-27T05:12:49.173Z,6.73
2018-09-27T05:13:49.095Z,6.72
2018-09-27T05:14:49.016Z,6.75
2018-09-27T05:15:48.977Z,6.75
2018-09-27T05:16:48.856Z,6.75
2018-09-27T05:17:48.779Z,6.73
2018-09-27T05:18:48.697Z,6.73
2018-09-27T05:19:48.619Z,6.70
2018-09-27T05:20:48.541Z,6.75
2018-09-27T05:21:48.461Z,6.65
2018-09-27T05:22:48.383Z,6.62
2018-09-27T05:23:48.302Z,6.65
2018-09-27T05:24:48.223Z,6.57
2018-09-27T05:25:48.147Z,6.52
2018-09-27T05:26:48.064Z,6.50
2018-09-27T05:27:47.982Z,6.47
2018-09-27T05:28:47.905Z,6.48
2018-09-27T05:29:47.926Z,6.41
2018-09-27T05:30:47.746Z,6.41
2018-09-27T05:31:47.666Z,6.51
2018-09-27T05:32:47.589Z,6.59
2018-09-27T05:33:47.508Z,6.55
2018-09-27T05:34:47.429Z,6.54
2018-09-27T05:35:47.448Z,6.51
2018-09-27T05:36:47.268Z,6.41
2018-09-27T05:37:47.189Z,6.36
2018-09-27T05:38:47.110Z,6.41
2018-09-27T05:39:47.030Z,6.42
2018-09-27T05:40:46.951Z,6.45
2018-09-27T05:41:46.872Z,6.52
2018-09-27T05:42:46.792Z,6.51
2018-09-27T05:43:46.712Z,6.55
2018-09-27T05:44:46.634Z,6.66
2018-09-27T05:45:46.554Z,6.70
2018-09-27T05:46:46.478Z,6.70
2018-09-27T05:47:46.397Z,6.65
2018-09-27T05:48:46.315Z,6.73
2018-09-27T05:49:46.289Z,6.73
2018-09-27T05:50:46.157Z,6.68
2018-09-27T05:51:46.082Z,6.69
2018-09-27T05:52:45.998Z,6.70
2018-09-27T05:53:45.918Z,6.76
2018-09-27T05:54:45.842Z,6.68
2018-09-27T05:55:45.824Z,6.69
2018-09-27T05:56:45.679Z,6.76
2018-09-27T05:57:45.600Z,6.70
2018-09-27T05:58:45.521Z,6.68
2018-09-27T05:59:45.440Z,6.75
2018-09-27T06:00:45.363Z,6.68
2018-09-27T06:01:45.287Z,6.73
2018-09-27T06:02:45.202Z,6.70
2018-09-27T06:03:45.125Z,6.73
2018-09-27T06:04:45.044Z,6.69
2018-09-27T06:05:44.964Z,6.70
2018-09-27T06:06:44.898Z,6.70
2018-09-27T06:07:44.805Z,6.78
2018-09-27T06:08:44.727Z,6.72
2018-09-27T06:09:44.648Z,6.76
2018-09-27T06:10:44.568Z,6.80
2018-09-27T06:11:44.587Z,6.84
2018-09-27T06:12:44.410Z,6.93
2018-09-27T06:13:44.330Z,6.91
2018-09-27T06:14:44.251Z,6.96
2018-09-27T06:15:44.254Z,6.96
2018-09-27T06:16:44.091Z,6.91
2018-09-27T06:17:44.061Z,6.98
2018-09-27T06:18:43.932Z,7.01
2018-09-27T06:19:43.857Z,6.94
2018-09-27T06:20:43.775Z,6.94
2018-09-27T06:21:43.778Z,7.08
2018-09-27T06:22:43.617Z,7.05
2018-09-27T06:23:43.536Z,7.05
2018-09-27T06:24:43.457Z,7.13
2018-09-27T06:25:43.379Z,7.08
2018-09-27T06:26:43.303Z,7.13
2018-09-27T06:27:43.282Z,7.20
2018-09-27T06:28:43.140Z,7.19
2018-09-27T06:29:43.062Z,7.16
2018-09-27T06:30:42.984Z,7.26
2018-09-27T06:31:42.902Z,7.24
2018-09-27T06:32:42.825Z,7.26
2018-09-27T06:33:42.801Z,7.29
2018-09-27T06:34:42.667Z,7.17
2018-09-27T06:35:42.587Z,7.26
2018-09-27T06:36:42.508Z,7.17
2018-09-27T06:37:42.530Z,7.30
2018-09-27T06:38:42.414Z,7.38
2018-09-27T06:39:42.271Z,7.37
2018-09-27T06:40:42.195Z,7.35
2018-09-27T06:41:42.117Z,7.37
2018-09-27T06:42:42.050Z,7.38
2018-09-27T06:43:41.956Z,7.45
2018-09-27T06:44:42.003Z,7.45
2018-09-27T06:45:41.800Z,7.49
2018-09-27T06:46:41.720Z,7.52
2018-09-27T06:47:41.641Z,7.55
2018-09-27T06:48:41.612Z,7.59
2018-09-27T06:49:41.484Z,7.57
2018-09-27T06:50:41.467Z,7.72
2018-09-27T06:51:41.326Z,7.78
2018-09-27T06:52:41.347Z,7.76
2018-09-27T06:53:41.169Z,7.81
2018-09-27T06:54:41.153Z,7.72
2018-09-27T06:55:41.151Z,7.81
2018-09-27T06:56:41.020Z,7.83
2018-09-27T06:57:40.854Z,7.85
2018-09-27T06:58:40.777Z,7.97
2018-09-27T06:59:40.698Z,7.97
2018-09-27T07:00:40.624Z,7.97
2018-09-27T07:01:40.541Z,8.04
2018-09-27T07:02:40.582Z,8.14
2018-09-27T07:03:40.384Z,8.19
2018-09-27T07:04:40.307Z,8.22
2018-09-27T07:05:40.228Z,8.32
2018-09-27T07:06:40.150Z,8.32
2018-09-27T07:07:40.173Z,8.30
2018-09-27T07:08:40.032Z,8.51
2018-09-27T07:09:39.915Z,8.48
2018-09-27T07:10:39.838Z,8.55
2018-09-27T07:11:39.759Z,8.68
2018-09-27T07:12:39.731Z,8.72
2018-09-27T07:13:39.602Z,8.75
2018-09-27T07:14:39.597Z,8.84
2018-09-27T07:15:39.589Z,8.88
2018-09-27T07:16:39.368Z,8.97
2018-09-27T07:17:39.292Z,8.93
2018-09-27T07:18:39.253Z,9.05
2018-09-27T07:19:39.136Z,9.12
2018-09-27T07:20:39.130Z,9.17
2018-09-27T07:21:38.980Z,9.35
2018-09-27T07:22:38.902Z,9.40
2018-09-27T07:23:38.823Z,9.43
2018-09-27T07:24:38.750Z,9.56
2018-09-27T07:25:38.672Z,9.63
2018-09-27T07:26:38.704Z,9.78
2018-09-27T07:27:38.514Z,9.80
2018-09-27T07:28:38.437Z,9.79
2018-09-27T07:29:38.360Z,9.88
2018-09-27T07:30:38.282Z,9.86
2018-09-27T07:31:38.207Z,9.97
2018-09-27T07:32:38.166Z,10.01
2018-09-27T07:33:38.052Z,10.16
2018-09-27T07:34:37.975Z,10.28
2018-09-27T07:35:37.899Z,10.23
2018-09-27T07:36:37.839Z,10.47
2018-09-27T07:37:37.744Z,10.46
2018-09-27T07:38:37.739Z,10.51
2018-09-27T07:39:37.589Z,10.60
2018-09-27T07:40:37.513Z,10.69
2018-09-27T07:41:37.439Z,10.66
2018-09-27T07:42:37.378Z,10.75
2018-09-27T07:43:37.335Z,10.87
2018-09-27T07:44:37.229Z,10.84
2018-09-27T07:45:37.136Z,10.95
2018-09-27T07:46:37.056Z,11.00
2018-09-27T07:47:36.979Z,11.03
2018-09-27T07:48:36.911Z,11.17
2018-09-27T07:49:36.879Z,11.26
2018-09-27T07:50:36.790Z,11.29
2018-09-27T07:51:36.675Z,11.38
2018-09-27T07:52:36.597Z,11.46
2018-09-27T07:53:36.522Z,11.56
2018-09-27T07:54:36.631Z,11.68
2018-09-27T07:55:36.369Z,11.71
2018-09-27T07:56:36.328Z,11.83
2018-09-27T07:57:36.218Z,11.78
2018-09-27T07:58:36.143Z,11.87
2018-09-27T07:59:36.065Z,12.03
2018-09-27T08:00:35.992Z,12.05
2018-09-27T08:01:35.915Z,12.09
2018-09-27T08:02:35.860Z,12.18
2018-09-27T08:03:35.763Z,12.31
2018-09-27T08:04:35.689Z,12.59
2018-09-27T08:05:35.617Z,12.70
2018-09-27T08:06:35.538Z,13.00
2018-09-27T08:07:35.463Z,13.15
2018-09-27T08:08:35.488Z,13.19
2018-09-27T08:09:35.315Z,13.37
2018-09-27T08:10:35.238Z,13.59
2018-09-27T08:11:35.251Z,13.80
2018-09-27T08:12:35.088Z,13.78
2018-09-27T08:13:35.014Z,13.89
2018-09-27T08:14:34.947Z,13.86
2018-09-27T08:15:34.862Z,13.92
2018-09-27T08:16:34.788Z,13.94
2018-09-27T08:17:34.715Z,13.94
2018-09-27T08:18:34.639Z,13.92
2018-09-27T08:19:34.569Z,13.95
2018-09-27T08:20:34.591Z,13.89
2018-09-27T08:21:34.416Z,13.95
2018-09-27T08:22:34.343Z,13.92
2018-09-27T08:23:34.266Z,13.98
2018-09-27T08:24:34.192Z,14.09
2018-09-27T08:25:34.120Z,14.09
2018-09-27T08:26:34.101Z,14.09
2018-09-27T08:27:33.969Z,14.17
2018-09-27T08:28:33.897Z,14.10
2018-09-27T08:29:33.822Z,14.16
2018-09-27T08:30:33.751Z,14.14
2018-09-27T08:31:33.672Z,14.20
2018-09-27T08:32:33.656Z,14.27
2018-09-27T08:33:33.526Z,14.34
2018-09-27T08:34:33.452Z,14.28
2018-09-27T08:35:33.377Z,14.31
2018-09-27T08:36:33.304Z,14.31
2018-09-27T08:37:33.229Z,14.44
2018-09-27T08:38:33.200Z,14.54
2018-09-27T08:39:33.081Z,14.57
2018-09-27T08:40:33.007Z,14.57
2018-09-27T08:41:32.934Z,14.69
2018-09-27T08:42:32.859Z,14.56
2018-09-27T08:43:32.784Z,14.68
2018-09-27T08:44:32.772Z,14.68
2018-09-27T08:45:32.870Z,14.84
2018-09-27T08:46:32.566Z,14.69
2018-09-27T08:47:32.488Z,14.80
2018-09-27T08:48:32.414Z,14.84
2018-09-27T08:49:32.342Z,14.80
2018-09-27T08:50:32.268Z,15.01
2018-09-27T08:51:32.202Z,14.95
2018-09-27T08:52:32.119Z,14.94
2018-09-27T08:53:32.046Z,15.02
2018-09-27T08:54:31.973Z,14.95
2018-09-27T08:55:32.033Z,15.09
2018-09-27T08:56:32.007Z,15.12
2018-09-27T08:57:31.766Z,15.13
2018-09-27T08:58:31.676Z,15.12
2018-09-27T08:59:31.602Z,15.20
2018-09-27T09:00:31.529Z,15.24
2018-09-27T09:01:31.509Z,15.41
2018-09-27T09:02:31.382Z,15.34
2018-09-27T09:03:31.404Z,15.30
2018-09-27T09:04:31.233Z,15.43
2018-09-27T09:05:31.161Z,15.39
2018-09-27T09:06:31.089Z,15.49
2018-09-27T09:07:31.120Z,15.51
2018-09-27T09:08:30.939Z,15.55
2018-09-27T09:09:30.870Z,15.70
2018-09-27T09:10:30.792Z,15.71
2018-09-27T09:11:30.718Z,15.76
2018-09-27T09:12:30.646Z,15.73
2018-09-27T09:13:30.652Z,15.83
2018-09-27T09:14:30.499Z,15.97
2018-09-27T09:15:30.428Z,15.88
2018-09-27T09:16:30.352Z,15.94
2018-09-27T09:17:30.283Z,16.03
2018-09-27T09:18:30.206Z,16.10
2018-09-27T09:19:30.169Z,16.07
2018-09-27T09:20:30.058Z,15.99
2018-09-27T09:21:30.026Z,16.07
2018-09-27T09:22:29.913Z,16.16
2018-09-27T09:23:29.889Z,16.18
2018-09-27T09:24:29.776Z,16.26
2018-09-27T09:25:29.735Z,16.29
2018-09-27T09:26:29.620Z,16.44
2018-09-27T09:27:29.601Z,16.48
2018-09-27T09:28:29.524Z,16.48
2018-09-27T09:29:29.493Z,16.60
2018-09-27T09:30:29.330Z,16.65
2018-09-27T09:31:29.255Z,16.65
2018-09-27T09:32:29.184Z,16.63
2018-09-27T09:33:29.143Z,16.73
2018-09-27T09:34:29.035Z,16.82
2018-09-27T09:35:29.017Z,16.88
2018-09-27T09:36:28.893Z,16.90
2018-09-27T09:37:28.819Z,16.99
2018-09-27T09:38:28.743Z,16.95
2018-09-27T09:39:28.671Z,17.11
2018-09-27T09:40:28.599Z,17.14
2018-09-27T09:41:28.525Z,17.25
2018-09-27T09:42:28.450Z,17.25
2018-09-27T09:43:28.378Z,17.30
2018-09-27T09:44:28.305Z,17.36
2018-09-27T09:45:28.233Z,17.33
2018-09-27T09:46:28.161Z,17.36
2018-09-27T09:47:28.087Z,17.48
2018-09-27T09:48:28.015Z,17.48
2018-09-27T09:49:27.993Z,17.63
2018-09-27T09:50:27.870Z,17.67
2018-09-27T09:51:27.796Z,17.69
2018-09-27T09:52:27.724Z,17.79
2018-09-27T09:53:27.651Z,17.89
2018-09-27T09:54:27.578Z,17.98
2018-09-27T09:55:27.506Z,18.04
2018-09-27T09:56:27.435Z,18.07
2018-09-27T09:57:27.361Z,18.11
2018-09-27T09:58:27.289Z,18.10
2018-09-27T09:59:27.220Z,18.18
2018-09-27T10:00:27.144Z,18.24
2018-09-27T10:01:27.072Z,18.29
2018-09-27T10:02:27.005Z,18.42
2018-09-27T10:03:26.927Z,18.42
2018-09-27T10:04:26.855Z,18.40
2018-09-27T10:05:26.782Z,18.42
2018-09-27T10:06:26.711Z,18.39
2018-09-27T10:07:26.636Z,18.50
2018-09-27T10:08:26.569Z,18.52
2018-09-27T10:09:26.493Z,18.46
2018-09-27T10:10:26.420Z,18.52
2018-09-27T10:11:26.350Z,18.57
2018-09-27T10:12:26.274Z,18.67
2018-09-27T10:13:26.205Z,18.74
2018-09-27T10:14:26.133Z,18.90
2018-09-27T10:15:26.060Z,18.89
2018-09-27T10:16:25.987Z,18.89
2018-09-27T10:17:25.927Z,18.94
2018-09-27T10:18:25.844Z,18.92
2018-09-27T10:19:25.771Z,18.95
2018-09-27T10:20:25.699Z,18.90
2018-09-27T10:21:25.628Z,18.89
2018-09-27T10:22:25.559Z,18.95
2018-09-27T10:23:25.482Z,18.97
2018-09-27T10:24:25.411Z,18.90
2018-09-27T10:25:25.342Z,18.94
2018-09-27T10:26:25.268Z,18.94
2018-09-27T10:27:25.348Z,18.97
2018-09-27T10:28:25.124Z,19.02
2018-09-27T10:29:25.052Z,19.13
2018-09-27T10:30:24.982Z,19.02
2018-09-27T10:31:24.907Z,18.98
2018-09-27T10:32:24.837Z,19.02
2018-09-27T10:33:24.764Z,19.20
2018-09-27T10:34:24.702Z,19.35
2018-09-27T10:35:24.621Z,19.32
2018-09-27T10:36:24.553Z,19.32
2018-09-27T10:37:24.479Z,19.31
2018-09-27T10:38:24.407Z,19.32
2018-09-27T10:39:24.336Z,19.46
2018-09-27T10:40:24.263Z,19.48
2018-09-27T10:41:24.192Z,19.48
2018-09-27T10:42:24.120Z,19.53
2018-09-27T10:43:24.048Z,19.69
2018-09-27T10:44:23.977Z,19.72
2018-09-27T10:45:23.906Z,19.79
2018-09-27T10:46:23.837Z,19.88
2018-09-27T10:47:23.863Z,19.86
2018-09-27T10:48:23.693Z,19.91
2018-09-27T10:49:23.621Z,19.94
2018-09-27T10:50:23.550Z,19.90
2018-09-27T10:51:23.501Z,19.98
2018-09-27T10:52:23.407Z,20.00
2018-09-27T10:53:23.338Z,20.08
2018-09-27T10:54:23.266Z,20.10
2018-09-27T10:55:23.193Z,20.20
2018-09-27T10:56:23.123Z,20.28
2018-09-27T10:57:23.052Z,20.30
2018-09-27T10:58:22.982Z,20.53
2018-09-27T10:59:22.916Z,20.90
2018-09-27T11:00:22.839Z,21.29
2018-09-27T11:01:22.770Z,21.69
2018-09-27T11:02:22.699Z,21.82
2018-09-27T11:03:22.629Z,22.12
2018-09-27T11:04:22.561Z,22.34
2018-09-27T11:05:22.488Z,22.47
2018-09-27T11:06:22.420Z,22.50
2018-09-27T11:07:22.349Z,22.37
2018-09-27T11:08:22.330Z,22.86
2018-09-27T11:09:22.211Z,23.11
2018-09-27T11:10:22.143Z,23.64
2018-09-27T11:11:22.194Z,23.85
2018-09-27T11:12:22.007Z,23.82
2018-09-27T11:13:21.940Z,24.04
2018-09-27T11:14:21.873Z,24.69
2018-09-27T11:15:21.804Z,24.47
2018-09-27T11:16:21.737Z,24.34
2018-09-27T11:17:21.671Z,24.78
2018-09-27T11:18:21.605Z,24.53
2018-09-27T11:19:21.539Z,24.38
2018-09-27T11:20:21.472Z,24.34
2018-09-27T11:21:21.406Z,24.66
2018-09-27T11:22:21.341Z,24.83
2018-09-27T11:23:21.274Z,25.32
2018-09-27T11:24:21.208Z,25.17
2018-09-27T11:25:21.143Z,25.30
2018-09-27T11:26:21.077Z,25.15
2018-09-27T11:27:21.012Z,25.04
2018-09-27T11:28:20.947Z,24.64
2018-09-27T11:29:20.883Z,25.23
2018-09-27T11:30:20.818Z,25.05
2018-09-27T11:31:20.752Z,25.40
2018-09-27T11:32:20.690Z,25.57
2018-09-27T11:33:20.622Z,25.30
2018-09-27T11:34:20.558Z,24.88
2018-09-27T11:35:20.493Z,25.00
2018-09-27T11:36:20.495Z,25.31
2018-09-27T11:37:20.363Z,25.60
2018-09-27T11:38:20.300Z,25.83
2018-09-27T11:39:20.234Z,26.18
2018-09-27T11:40:20.170Z,26.31
2018-09-27T11:41:20.106Z,26.35
2018-09-27T11:42:20.051Z,26.53
2018-09-27T11:43:19.978Z,26.04
2018-09-27T11:44:19.914Z,26.46
2018-09-27T11:45:19.851Z,26.92
2018-09-27T11:46:19.790Z,27.17
2018-09-27T11:47:19.723Z,27.80
2018-09-27T11:48:19.663Z,28.09
2018-09-27T11:49:19.683Z,28.09
2018-09-27T11:50:19.615Z,28.24
2018-09-27T11:51:19.477Z,27.80
2018-09-27T11:52:19.413Z,28.53
2018-09-27T11:53:19.351Z,28.13
2018-09-27T11:54:19.290Z,28.41
2018-09-27T11:55:19.229Z,28.63
2018-09-27T11:56:19.166Z,29.07
2018-09-27T11:57:19.105Z,29.13
2018-09-27T11:58:19.047Z,29.40
2018-09-27T11:59:18.985Z,30.11
2018-09-27T12:00:18.924Z,30.22
2018-09-27T12:01:18.870Z,30.46
2018-09-27T12:02:18.806Z,30.30
2018-09-27T12:03:18.744Z,30.10
2018-09-27T12:04:18.687Z,30.33
2018-09-27T12:05:18.628Z,31.05
2018-09-27T12:06:18.571Z,31.02
2018-09-27T12:07:18.521Z,30.57
2018-09-27T12:08:18.450Z,29.63
2018-09-27T12:09:18.393Z,29.21
2018-09-27T12:10:18.334Z,29.59
2018-09-27T12:11:18.277Z,30.44
2018-09-27T12:12:18.220Z,30.50
2018-09-27T12:13:18.220Z,30.89
2018-09-27T12:14:18.105Z,30.60
2018-09-27T12:15:18.043Z,29.87
2018-09-27T12:16:17.985Z,29.65
2018-09-27T12:17:17.928Z,29.81
2018-09-27T12:18:17.870Z,29.63
2018-09-27T12:19:17.812Z,29.92
2018-09-27T12:20:17.858Z,29.59
2018-09-27T12:21:17.698Z,29.56
2018-09-27T12:22:17.644Z,29.95
2018-09-27T12:23:17.585Z,29.65
2018-09-27T12:24:17.525Z,29.60
2018-09-27T12:25:17.468Z,29.47
2018-09-27T12:26:17.411Z,30.02
2018-09-27T12:27:17.354Z,29.92
2018-09-27T12:28:17.297Z,29.40
2018-09-27T12:29:17.244Z,28.93
2018-09-27T12:30:17.183Z,29.50
2018-09-27T12:31:17.124Z,29.96
2018-09-27T12:32:17.066Z,29.44
2018-09-27T12:33:17.010Z,29.21
2018-09-27T12:34:16.952Z,29.47
2018-09-27T12:35:16.994Z,29.47
2018-09-27T12:36:16.836Z,29.66
2018-09-27T12:37:16.779Z,29.69
2018-09-27T12:38:16.820Z,29.46
2018-09-27T12:39:16.664Z,29.85
2018-09-27T12:40:16.606Z,29.73
2018-09-27T12:41:16.549Z,29.87
2018-09-27T12:42:16.640Z,29.99
2018-09-27T12:43:16.434Z,30.32
2018-09-27T12:44:16.376Z,29.89
2018-09-27T12:45:16.364Z,30.06
2018-09-27T12:46:16.269Z,30.67
2018-09-27T12:47:16.204Z,31.26
2018-09-27T12:48:16.177Z,31.76
2018-09-27T12:49:16.090Z,32.40
2018-09-27T12:50:16.037Z,32.97
2018-09-27T12:51:16.280Z,32.70
2018-09-27T12:52:16.204Z,32.79
2018-09-27T12:53:15.958Z,32.70
2018-09-27T12:54:15.807Z,32.83
2018-09-27T12:55:15.749Z,32.42
2018-09-27T12:56:15.694Z,31.84
2018-09-27T12:57:15.724Z,31.46
2018-09-27T12:58:15.583Z,31.90
2018-09-27T12:59:15.524Z,32.08
2018-09-27T13:00:15.470Z,32.51
2018-09-27T13:01:15.413Z,32.98
2018-09-27T13:02:15.520Z,32.73
2018-09-27T13:03:15.301Z,32.99
2018-09-27T13:04:15.246Z,33.14
2018-09-27T13:05:15.200Z,32.94
2018-09-27T13:06:15.136Z,32.79